Time;durP1;ratioP1;P1;durP2;ratioP2;P2;SDS_P1;SDS_P2;PMS_P1;PMS_P2;Temp;Humidity;BMP_temperature;BMP_pressure;BME280_temperature;BME280_humidity;BME280_pressure;Samples;Min_cycle;Max_cycle;Signal;HPM_P1;HPM_P2
2023/05/21 00:01:24;;;;;;;7.25;4.97;;;13.10;99.90;;;;;;12540444;28;20055;-39
2023/05/21 00:07:27;;;;;;;6.32;4.93;;;13.10;99.90;;;;;;12555761;28;20053;-38
2023/05/21 00:13:31;;;;;;;6.95;5.13;;;13.00;99.90;;;;;;12530729;28;20132;-39
2023/05/21 00:19:34;;;;;;;9.90;5.77;;;13.00;99.90;;;;;;12535283;28;20045;-40
2023/05/21 00:25:37;;;;;;;7.18;5.22;;;13.00;99.90;;;;;;12542219;28;20053;-39
2023/05/21 00:31:40;;;;;;;7.38;5.30;;;13.10;99.90;;;;;;12538425;28;20053;-39
2023/05/21 00:37:43;;;;;;;6.77;4.77;;;13.10;99.90;;;;;;12545378;28;20098;-39
2023/05/21 00:43:46;;;;;;;7.00;5.15;;;13.00;99.90;;;;;;12544877;28;20486;-39
2023/05/21 00:49:52;;;;;;;6.97;5.20;;;13.00;99.90;;;;;;12533266;28;20397;-38
2023/05/21 00:55:55;;;;;;;7.35;5.72;;;12.90;99.90;;;;;;12539923;28;20049;-38
2023/05/21 01:02:03;;;;;;;9.45;5.20;;;12.80;99.90;;;;;;12540686;28;20041;-39
2023/05/21 01:08:06;;;;;;;6.45;5.05;;;12.80;99.90;;;;;;12533150;28;20051;-39
2023/05/21 01:14:11;;;;;;;6.82;5.20;;;12.70;99.90;;;;;;12523501;28;20513;-39
2023/05/21 01:20:19;;;;;;;7.78;5.63;;;12.70;99.90;;;;;;12504696;28;20050;-39
2023/05/21 01:26:24;;;;;;;7.07;5.60;;;12.70;99.90;;;;;;12488557;28;20114;-40
2023/05/21 01:32:40;;;;;;;10.02;5.57;;;12.60;99.90;;;;;;12495685;28;20565;-39
2023/05/21 01:38:59;;;;;;;7.47;5.05;;;12.60;99.90;;;;;;12485118;28;20927;-39
2023/05/21 01:45:06;;;;;;;8.88;5.45;;;12.50;99.90;;;;;;12491519;28;20398;-38
2023/05/21 01:51:15;;;;;;;9.40;5.90;;;12.40;99.90;;;;;;12484444;28;20401;-39
2023/05/21 01:57:18;;;;;;;7.00;5.20;;;12.40;99.90;;;;;;12489723;28;20257;-38
2023/05/21 02:03:25;;;;;;;9.45;5.80;;;12.40;99.90;;;;;;12485661;28;20427;-38
2023/05/21 02:09:30;;;;;;;8.07;5.60;;;12.30;99.90;;;;;;12492199;28;20053;-39
2023/05/21 02:15:39;;;;;;;7.70;5.18;;;12.30;99.90;;;;;;12524961;28;20049;-36
2023/05/21 02:21:47;;;;;;;9.98;6.20;;;12.30;99.90;;;;;;12528725;28;20505;-37
2023/05/21 02:27:55;;;;;;;8.57;5.97;;;12.20;99.90;;;;;;12525916;28;20111;-36
2023/05/21 02:33:59;;;;;;;9.35;5.70;;;12.20;99.90;;;;;;12527379;28;20152;-37
2023/05/21 02:40:06;;;;;;;7.33;5.50;;;12.20;99.90;;;;;;12518000;28;20061;-36
2023/05/21 02:46:10;;;;;;;10.32;5.82;;;12.20;99.90;;;;;;12518168;28;20054;-37
2023/05/21 02:52:18;;;;;;;13.27;6.40;;;12.30;99.90;;;;;;12522698;28;20346;-36
2023/05/21 02:58:28;;;;;;;8.70;5.43;;;12.30;99.90;;;;;;12527766;28;20478;-36
2023/05/21 03:04:44;;;;;;;7.32;5.90;;;12.30;99.90;;;;;;12497670;28;20132;-36
2023/05/21 03:10:59;;;;;;;9.70;6.05;;;12.30;99.90;;;;;;12532640;28;20052;-37
2023/05/21 03:17:05;;;;;;;8.35;5.53;;;12.30;99.90;;;;;;12534694;28;20045;-36
2023/05/21 03:23:12;;;;;;;9.02;5.72;;;12.40;99.90;;;;;;12539210;28;20045;-37
2023/05/21 03:29:18;;;;;;;9.65;6.05;;;12.30;99.90;;;;;;12539598;28;20060;-36
2023/05/21 03:35:22;;;;;;;8.38;5.97;;;12.20;99.90;;;;;;12529802;28;20041;-36
2023/05/21 03:41:31;;;;;;;10.13;6.68;;;12.10;99.90;;;;;;12529014;28;20136;-36
2023/05/21 03:47:41;;;;;;;7.80;5.85;;;12.10;99.90;;;;;;12524663;28;20044;-36
2023/05/21 03:53:50;;;;;;;8.40;6.22;;;12.00;99.90;;;;;;12548152;28;20102;-36
2023/05/21 04:00:00;;;;;;;8.93;5.97;;;12.00;99.90;;;;;;12527474;28;20041;-37
2023/05/21 04:06:08;;;;;;;9.48;5.90;;;12.00;99.90;;;;;;12537301;28;20049;-36
2023/05/21 04:12:12;;;;;;;10.30;6.43;;;12.00;99.90;;;;;;12517968;28;20071;-36
2023/05/21 04:18:16;;;;;;;10.05;6.53;;;12.10;99.90;;;;;;12539170;28;20060;-36
2023/05/21 04:24:21;;;;;;;11.57;6.60;;;12.40;99.90;;;;;;12517869;28;20049;-36
2023/05/21 04:30:25;;;;;;;9.05;6.07;;;12.40;99.90;;;;;;12538152;28;20041;-37
2023/05/21 04:36:30;;;;;;;9.38;6.47;;;12.60;99.90;;;;;;12536252;28;20505;-37
2023/05/21 04:42:33;;;;;;;;;;;12.60;99.90;;;;;;12530843;28;20049;-36
2023/05/21 04:48:37;;;;;;;9.27;5.55;;;12.50;99.90;;;;;;12532239;28;19924;-37
2023/05/21 04:54:40;;;;;;;8.82;5.50;;;12.40;99.90;;;;;;12533871;28;20052;-36
2023/05/21 05:00:49;;;;;;;9.05;5.82;;;12.40;99.90;;;;;;12535553;28;20055;-37
2023/05/21 05:06:53;;;;;;;6.82;5.40;;;12.40;99.90;;;;;;12528895;28;20048;-36
2023/05/21 05:12:57;;;;;;;10.30;5.90;;;12.50;99.90;;;;;;12545663;28;20048;-36
2023/05/21 05:19:00;;;;;;;9.23;6.00;;;12.50;99.90;;;;;;12536859;28;20076;-37
2023/05/21 05:25:05;;;;;;;8.43;5.75;;;12.50;99.90;;;;;;12532052;28;20049;-36
2023/05/21 05:31:10;;;;;;;;;;;12.40;99.90;;;;;;12515050;28;20554;-37
2023/05/21 05:37:14;;;;;;;8.32;5.70;;;12.50;99.90;;;;;;12509719;28;19921;-36
2023/05/21 05:43:19;;;;;;;8.48;5.78;;;12.60;99.90;;;;;;12530800;28;20425;-37
2023/05/21 05:49:22;;;;;;;8.05;5.60;;;12.70;99.90;;;;;;12524658;28;20465;-36
2023/05/21 05:55:26;;;;;;;12.43;5.93;;;12.70;99.90;;;;;;12528330;28;20520;-37
2023/05/21 06:01:30;;;;;;;8.88;6.13;;;13.00;99.90;;;;;;12531030;28;20056;-36
2023/05/21 06:07:39;;;;;;;8.40;5.85;;;12.80;99.90;;;;;;12514492;28;20521;-36
2023/05/21 06:13:47;;;;;;;7.63;5.75;;;12.80;99.90;;;;;;12533320;28;20059;-36
2023/05/21 06:19:54;;;;;;;10.07;6.10;;;12.80;99.90;;;;;;12536043;28;20090;-37
2023/05/21 06:26:00;;;;;;;7.55;5.55;;;12.80;99.90;;;;;;12532562;28;20523;-37
2023/05/21 06:32:08;;;;;;;9.90;5.72;;;12.80;99.90;;;;;;12510704;28;20391;-37
2023/05/21 06:38:14;;;;;;;10.60;6.65;;;12.70;99.90;;;;;;12515831;28;20037;-36
2023/05/21 06:44:21;;;;;;;8.38;5.57;;;13.00;99.90;;;;;;12531006;28;20049;-36
2023/05/21 06:50:28;;;;;;;9.52;6.40;;;12.90;99.90;;;;;;12518788;28;20045;-37
2023/05/21 06:56:33;;;;;;;8.43;6.07;;;12.90;99.90;;;;;;12534555;28;20052;-37
2023/05/21 07:02:47;;;;;;;9.77;6.13;;;12.90;99.90;;;;;;12540739;28;20057;-37
2023/05/21 07:08:55;;;;;;;9.15;6.45;;;13.00;99.90;;;;;;12529129;28;20449;-36
2023/05/21 07:15:01;;;;;;;9.90;6.00;;;13.10;99.90;;;;;;12494708;28;20072;-37
2023/05/21 07:21:04;;;;;;;11.43;6.55;;;13.10;99.90;;;;;;12472923;28;20461;-37
2023/05/21 07:27:07;;;;;;;11.05;6.50;;;13.30;99.90;;;;;;12460021;28;20783;-37
2023/05/21 07:33:27;;;;;;;11.23;6.88;;;13.40;99.90;;;;;;12470854;28;20084;-37
2023/05/21 07:39:30;;;;;;;9.65;7.13;;;13.50;99.90;;;;;;12461665;28;20072;-37
2023/05/21 07:45:34;;;;;;;12.90;8.10;;;13.70;99.90;;;;;;12457289;28;20430;-37
2023/05/21 07:51:38;;;;;;;12.85;7.97;;;13.80;99.90;;;;;;12462896;28;20408;-37
2023/05/21 07:57:41;;;;;;;13.32;8.20;;;14.10;99.90;;;;;;12485231;28;20516;-36
2023/05/21 08:03:45;;;;;;;9.80;7.57;;;13.80;99.90;;;;;;12472931;28;20057;-37
2023/05/21 08:09:50;;;;;;;13.48;8.73;;;14.00;99.90;;;;;;12471540;28;20072;-37
2023/05/21 08:15:53;;;;;;;;;;;14.00;99.90;;;;;;12499665;28;20053;-39
2023/05/21 08:21:57;;;;;;;12.40;7.78;;;14.20;99.90;;;;;;12539555;28;20323;-39
2023/05/21 08:28:00;;;;;;;;;;;14.60;99.90;;;;;;12523194;28;20160;-40
2023/05/21 08:34:04;;;;;;;14.68;9.20;;;14.60;99.90;;;;;;12539893;28;20293;-39
2023/05/21 08:40:08;;;;;;;13.07;9.23;;;14.70;99.90;;;;;;12526217;28;20140;-39
2023/05/21 08:46:12;;;;;;;12.15;9.05;;;14.80;99.90;;;;;;12487033;28;20291;-39
2023/05/21 08:52:16;;;;;;;16.95;9.82;;;14.80;99.90;;;;;;12538500;28;20084;-40
2023/05/21 08:58:20;;;;;;;14.15;10.32;;;15.00;99.90;;;;;;12540536;28;20044;-39
2023/05/21 09:04:23;;;;;;;13.95;10.02;;;14.90;99.90;;;;;;12536149;28;20053;-39
2023/05/21 09:10:38;;;;;;;13.40;9.63;;;15.00;99.90;;;;;;12528324;28;20083;-39
2023/05/21 09:16:41;;;;;;;13.05;10.38;;;15.30;99.90;;;;;;12470996;28;20132;-39
2023/05/21 09:22:47;;;;;;;15.60;10.65;;;15.70;99.90;;;;;;12472419;28;20087;-39
2023/05/21 09:28:55;;;;;;;17.17;10.55;;;15.90;99.90;;;;;;12490553;28;20145;-39
2023/05/21 09:35:06;;;;;;;13.50;10.07;;;15.90;99.90;;;;;;12487913;28;20041;-40
2023/05/21 09:41:29;;;;;;;14.98;10.68;;;16.10;99.90;;;;;;12499346;28;20485;-40
2023/05/21 09:47:33;;;;;;;16.52;11.15;;;16.20;99.90;;;;;;12484846;28;20136;-40
2023/05/21 09:53:48;;;;;;;14.73;11.57;;;16.90;99.90;;;;;;12495152;28;20194;-40
2023/05/21 09:59:52;;;;;;;17.00;12.07;;;17.00;99.90;;;;;;12475925;28;20056;-40
2023/05/21 10:05:59;;;;;;;17.88;12.52;;;16.90;99.90;;;;;;12469320;28;20044;-39
2023/05/21 10:12:03;;;;;;;16.83;12.00;;;16.70;99.90;;;;;;12499056;28;20053;-40
2023/05/21 10:18:08;;;;;;;;;;;17.10;99.90;;;;;;12521782;28;20143;-40
2023/05/21 10:24:14;;;;;;;19.23;12.73;;;17.30;99.90;;;;;;12531150;28;19948;-41
2023/05/21 10:30:20;;;;;;;17.58;13.00;;;17.50;99.90;;;;;;12539161;28;20056;-40
2023/05/21 10:36:24;;;;;;;17.73;13.27;;;17.70;99.90;;;;;;12544618;28;20045;-40
2023/05/21 10:42:31;;;;;;;17.88;12.82;;;18.00;99.90;;;;;;12540735;28;20049;-40
2023/05/21 10:48:44;;;;;;;18.02;13.15;;;18.50;99.90;;;;;;12517440;28;20052;-40
2023/05/21 10:55:13;;;;;;;17.07;13.23;;;19.40;99.90;;;;;;12525476;28;20133;-39
2023/05/21 11:01:20;;;;;;;17.73;13.63;;;19.50;99.90;;;;;;12529913;28;20131;-40
2023/05/21 11:07:54;;;;;;;15.35;12.82;;;19.20;99.90;;;;;;12517709;28;20405;-40
2023/05/21 11:13:58;;;;;;;18.02;13.45;;;18.90;99.90;;;;;;12541768;28;20439;-40
2023/05/21 11:20:12;;;;;;;17.88;12.90;;;19.20;99.90;;;;;;12536375;28;20045;-40
2023/05/21 11:26:16;;;;;;;19.73;14.93;;;19.20;99.90;;;;;;12525534;28;20050;-41
2023/05/21 11:32:19;;;;;;;19.67;14.85;;;19.30;99.90;;;;;;12520721;28;20440;-41
2023/05/21 11:38:30;;;;;;;19.25;15.93;;;19.30;99.90;;;;;;12519651;28;20059;-39
2023/05/21 11:44:38;;;;;;;23.13;16.65;;;19.60;99.90;;;;;;12527019;28;20049;-40
2023/05/21 11:50:44;;;;;;;19.25;15.10;;;20.10;99.90;;;;;;12521959;28;20099;-40
2023/05/21 11:56:48;;;;;;;19.65;14.48;;;20.50;99.90;;;;;;12522350;28;20060;-41
2023/05/21 12:03:11;;;;;;;;;;;20.20;99.90;;;;;;12527689;28;20421;-40
2023/05/21 12:09:16;;;;;;;16.88;14.25;;;20.10;99.90;;;;;;12529395;28;20428;-40
2023/05/21 12:15:26;;;;;;;19.90;14.25;;;20.30;99.90;;;;;;12534795;28;20065;-41
2023/05/21 12:21:33;;;;;;;18.08;14.00;;;20.40;99.90;;;;;;12534814;28;20421;-40
2023/05/21 12:27:40;;;;;;;20.33;14.95;;;20.60;99.90;;;;;;12527458;28;20512;-41
2023/05/21 12:33:54;;;;;;;17.83;13.68;;;20.50;99.90;;;;;;12516236;28;20533;-40
2023/05/21 12:40:10;;;;;;;21.30;13.88;;;20.50;99.90;;;;;;12524538;28;20049;-39
2023/05/21 12:46:18;;;;;;;17.40;13.90;;;20.70;99.90;;;;;;12553086;28;20076;-40
2023/05/21 12:52:29;;;;;;;17.58;13.63;;;20.80;99.90;;;;;;12526167;28;20140;-39
2023/05/21 12:58:37;;;;;;;17.73;13.70;;;21.00;99.90;;;;;;12514886;28;20141;-40
2023/05/21 13:04:41;;;;;;;17.02;13.48;;;21.70;99.90;;;;;;12502890;28;20044;-40
2023/05/21 13:10:44;;;;;;;17.30;13.70;;;22.00;99.90;;;;;;12532640;28;20049;-40
2023/05/21 13:16:47;;;;;;;17.30;13.85;;;21.90;99.90;;;;;;12514975;28;20068;-39
2023/05/21 13:22:52;;;;;;;17.30;13.55;;;21.80;99.90;;;;;;12518300;28;20199;-40
2023/05/21 13:28:56;;;;;;;17.00;13.73;;;21.70;99.90;;;;;;12527525;28;20041;-40
2023/05/21 13:34:59;;;;;;;16.57;13.43;;;21.80;99.90;;;;;;12508355;28;20045;-40
2023/05/21 13:41:03;;;;;;;14.30;12.68;;;21.60;99.90;;;;;;12538640;28;20056;-40
2023/05/21 13:47:07;;;;;;;16.05;12.57;;;21.60;99.90;;;;;;12532955;28;20047;-40
2023/05/21 13:53:12;;;;;;;17.17;12.63;;;21.80;99.90;;;;;;12522834;28;20107;-40
2023/05/21 13:59:15;;;;;;;20.35;12.98;;;22.00;99.90;;;;;;12529772;28;20049;-41
2023/05/21 14:05:19;;;;;;;17.10;13.18;;;22.10;99.90;;;;;;12528579;28;20051;-40
2023/05/21 14:11:26;;;;;;;18.35;13.43;;;22.30;99.90;;;;;;12527131;28;20053;-40
2023/05/21 14:17:31;;;;;;;17.08;12.18;;;22.60;99.90;;;;;;12523242;28;20048;-39
2023/05/21 14:23:35;;;;;;;14.38;12.65;;;22.80;99.90;;;;;;12549637;28;20056;-40
2023/05/21 14:29:38;;;;;;;19.90;11.95;;;22.70;99.90;;;;;;12563216;28;20048;-39
2023/05/21 14:35:42;;;;;;;14.45;11.68;;;23.10;99.90;;;;;;12540298;28;20136;-40
2023/05/21 14:41:52;;;;;;;15.93;12.10;;;23.10;99.90;;;;;;12543012;28;20143;-40
2023/05/21 14:47:55;;;;;;;14.15;12.02;;;23.10;99.90;;;;;;12536808;28;20143;-39
2023/05/21 14:53:58;;;;;;;15.57;11.85;;;23.00;99.90;;;;;;12536720;28;20528;-41
2023/05/21 15:00:01;;;;;;;14.77;11.23;;;22.90;99.90;;;;;;12511581;28;20147;-40
2023/05/21 15:06:05;;;;;;;13.30;11.80;;;22.90;99.90;;;;;;12525514;28;20053;-40
2023/05/21 15:12:11;;;;;;;17.10;11.30;;;22.90;99.90;;;;;;12534716;28;20295;-39
2023/05/21 15:18:16;;;;;;;16.10;11.73;;;23.00;99.90;;;;;;12531082;28;20135;-40
2023/05/21 15:24:19;;;;;;;14.65;10.90;;;23.10;99.90;;;;;;12525772;28;20195;-39
2023/05/21 15:30:24;;;;;;;12.70;11.13;;;23.10;99.90;;;;;;12540218;28;20064;-46
2023/05/21 15:36:27;;;;;;;20.30;10.85;;;23.20;99.90;;;;;;12552132;28;20045;-39
2023/05/21 15:42:32;;;;;;;13.70;11.55;;;23.20;99.90;;;;;;12522461;28;20489;-40
2023/05/21 15:48:35;;;;;;;15.50;12.55;;;23.30;99.90;;;;;;12548893;28;20503;-40
2023/05/21 15:54:38;;;;;;;;;;;23.30;99.90;;;;;;12542655;28;20123;-40
2023/05/21 16:00:40;;;;;;;13.80;10.45;;;23.30;99.90;;;;;;12539869;28;19928;-40
2023/05/21 16:06:43;;;;;;;;;;;23.30;99.90;;;;;;12546564;28;20053;-39
2023/05/21 16:12:46;;;;;;;16.92;11.35;;;23.30;99.90;;;;;;12537197;28;19921;-40
2023/05/21 16:18:51;;;;;;;13.20;10.30;;;23.30;99.90;;;;;;12534688;28;20497;-39
2023/05/21 16:24:53;;;;;;;;;;;23.40;99.90;;;;;;12541703;28;20205;-38
2023/05/21 16:30:57;;;;;;;15.73;10.33;;;23.30;99.90;;;;;;12537446;28;20483;-37
2023/05/21 16:37:00;;;;;;;13.82;9.70;;;23.30;99.90;;;;;;12536603;28;20040;-37
2023/05/21 16:43:07;;;;;;;11.23;9.32;;;23.30;99.90;;;;;;12531572;28;20060;-38
2023/05/21 16:49:11;;;;;;;11.98;9.02;;;23.30;99.90;;;;;;12535735;28;20429;-38
2023/05/21 16:55:14;;;;;;;14.10;9.40;;;23.50;99.90;;;;;;12539966;28;20037;-38
2023/05/21 17:01:16;;;;;;;13.30;9.63;;;23.70;99.90;;;;;;12535408;28;20081;-38
2023/05/21 17:07:19;;;;;;;12.88;8.75;;;23.80;99.90;;;;;;12519593;28;20053;-38
2023/05/21 17:13:22;;;;;;;12.68;9.13;;;23.80;99.90;;;;;;12531080;28;20049;-37
2023/05/21 17:19:26;;;;;;;12.85;9.68;;;23.80;99.90;;;;;;12547516;28;20037;-37
2023/05/21 17:25:30;;;;;;;13.88;9.43;;;23.70;99.90;;;;;;12526588;28;20136;-39
2023/05/21 17:31:38;;;;;;;12.30;9.35;;;23.70;99.90;;;;;;12521754;28;20404;-38
2023/05/21 17:37:41;;;;;;;12.13;9.60;;;23.60;99.90;;;;;;12531575;28;20049;-39
2023/05/21 17:43:45;;;;;;;12.13;9.73;;;23.60;99.90;;;;;;12538615;28;20056;-38
2023/05/21 17:49:48;;;;;;;13.38;10.20;;;23.60;99.90;;;;;;12561467;28;20135;-38
2023/05/21 17:55:52;;;;;;;13.48;10.60;;;23.60;99.90;;;;;;12519620;28;20144;-38
2023/05/21 18:02:00;;;;;;;15.90;10.38;;;23.50;99.90;;;;;;12542457;28;20139;-38
2023/05/21 18:08:05;;;;;;;12.45;9.75;;;23.30;99.90;;;;;;12538979;28;20056;-38
2023/05/21 18:14:09;;;;;;;14.60;11.05;;;23.10;99.90;;;;;;12537716;28;20147;-36
2023/05/21 18:20:29;;;;;;;13.10;10.68;;;22.90;99.90;;;;;;12508925;28;21221;-36
2023/05/21 18:26:35;;;;;;;14.63;10.85;;;22.80;99.90;;;;;;12510569;28;20059;-36
2023/05/21 18:32:43;;;;;;;14.90;10.70;;;22.70;99.90;;;;;;12534888;28;20095;-36
2023/05/21 18:38:48;;;;;;;14.77;10.32;;;22.50;99.90;;;;;;12523858;28;20041;-37
2023/05/21 18:44:52;;;;;;;14.98;11.40;;;22.40;99.90;;;;;;12544802;28;20198;-36
2023/05/21 18:51:00;;;;;;;13.93;11.07;;;22.30;99.90;;;;;;12560816;28;20102;-36
2023/05/21 18:57:04;;;;;;;13.95;11.35;;;21.90;99.90;;;;;;12545663;28;20049;-36
2023/05/21 19:03:08;;;;;;;14.07;11.32;;;21.70;99.90;;;;;;12548726;28;20049;-36
2023/05/21 19:09:12;;;;;;;16.20;11.63;;;21.60;99.90;;;;;;12546183;28;20060;-35
2023/05/21 19:15:14;;;;;;;13.30;11.65;;;21.60;99.90;;;;;;12560136;28;20623;-37
2023/05/21 19:21:20;;;;;;;15.57;11.27;;;21.30;99.90;;;;;;12540489;28;20163;-36
2023/05/21 19:27:23;;;;;;;15.88;12.30;;;21.30;99.90;;;;;;12540715;28;20095;-37
2023/05/21 19:33:27;;;;;;;15.23;11.60;;;21.20;99.90;;;;;;12520507;28;20060;-36
2023/05/21 19:39:42;;;;;;;15.02;11.55;;;21.00;99.90;;;;;;12549529;28;20057;-36
2023/05/21 19:45:45;;;;;;;15.15;11.65;;;21.00;99.90;;;;;;12527917;28;20053;-36
2023/05/21 19:51:48;;;;;;;15.67;11.33;;;21.00;99.90;;;;;;12554472;28;20413;-35
2023/05/21 19:57:51;;;;;;;13.32;11.32;;;21.10;99.90;;;;;;12530105;28;20045;-35
2023/05/21 20:03:53;;;;;;;13.77;11.23;;;21.10;99.90;;;;;;12534577;28;20049;-35
2023/05/21 20:09:57;;;;;;;14.53;10.47;;;21.10;99.90;;;;;;12544346;28;20060;-36
2023/05/21 20:15:59;;;;;;;;;;;21.10;99.90;;;;;;12540055;28;20072;-36
2023/05/21 20:22:01;;;;;;;14.18;9.73;;;21.20;99.90;;;;;;12548284;28;19926;-35
2023/05/21 20:28:06;;;;;;;16.05;10.10;;;21.10;99.90;;;;;;12555269;28;20148;-37
2023/05/21 20:34:11;;;;;;;12.75;10.20;;;21.10;99.90;;;;;;12543626;28;20658;-36
2023/05/21 20:40:23;;;;;;;12.60;10.45;;;21.00;99.90;;;;;;12553920;28;20519;-35
2023/05/21 20:46:26;;;;;;;14.05;10.27;;;21.00;99.90;;;;;;12535660;28;20056;-35
2023/05/21 20:52:33;;;;;;;14.07;9.65;;;21.00;99.90;;;;;;12535423;28;20053;-36
2023/05/21 20:58:38;;;;;;;12.18;9.73;;;21.00;99.90;;;;;;12548427;28;20045;-35
2023/05/21 21:04:41;;;;;;;13.90;10.50;;;21.00;99.90;;;;;;12555490;28;20053;-36
2023/05/21 21:10:45;;;;;;;13.88;10.68;;;20.50;99.90;;;;;;12554867;28;20513;-36
2023/05/21 21:16:50;;;;;;;14.75;10.00;;;20.30;99.90;;;;;;12539330;28;20071;-36
2023/05/21 21:22:54;;;;;;;12.43;9.68;;;20.20;99.90;;;;;;12542885;28;20101;-35
2023/05/21 21:28:58;;;;;;;12.30;9.27;;;20.40;99.90;;;;;;12542090;28;20135;-37
2023/05/21 21:35:01;;;;;;;14.80;10.48;;;20.60;99.90;;;;;;12531729;28;20457;-36
2023/05/21 21:41:06;;;;;;;13.27;9.38;;;20.60;99.90;;;;;;12524080;28;20143;-36
2023/05/21 21:47:09;;;;;;;13.02;9.65;;;20.60;99.90;;;;;;12551713;28;20044;-36
2023/05/21 21:53:14;;;;;;;11.95;9.55;;;20.50;99.90;;;;;;12529518;28;20045;-36
2023/05/21 21:59:17;;;;;;;14.07;9.70;;;20.70;99.90;;;;;;12524361;28;20114;-38
2023/05/21 22:05:20;;;;;;;12.70;9.85;;;20.90;99.90;;;;;;12537066;28;20045;-36
2023/05/21 22:11:29;;;;;;;12.77;9.30;;;20.90;99.90;;;;;;12545749;28;20068;-37
2023/05/21 22:17:32;;;;;;;12.15;8.93;;;21.00;99.90;;;;;;12494995;28;20421;-37
2023/05/21 22:23:36;;;;;;;13.57;9.10;;;21.00;99.90;;;;;;12508799;28;20061;-37
2023/05/21 22:29:40;;;;;;;12.25;9.45;;;20.90;99.90;;;;;;12524236;28;20481;-36
2023/05/21 22:35:44;;;;;;;11.82;9.45;;;20.90;99.90;;;;;;12546036;28;20123;-36
2023/05/21 22:41:52;;;;;;;12.15;8.82;;;20.80;99.90;;;;;;12545778;28;20417;-36
2023/05/21 22:47:55;;;;;;;12.82;9.35;;;20.70;99.90;;;;;;12535291;28;20459;-36
2023/05/21 22:54:00;;;;;;;11.60;8.55;;;20.60;99.90;;;;;;12543887;28;20053;-36
2023/05/21 23:00:06;;;;;;;12.52;8.80;;;20.60;99.90;;;;;;12544019;28;20045;-36
2023/05/21 23:06:08;;;;;;;10.63;9.13;;;20.50;99.90;;;;;;12527074;28;20049;-38
2023/05/21 23:12:12;;;;;;;12.13;9.35;;;20.30;99.90;;;;;;12536383;28;20449;-36
2023/05/21 23:18:16;;;;;;;13.27;9.57;;;20.10;99.90;;;;;;12486200;28;20057;-36
2023/05/21 23:24:19;;;;;;;;;;;19.80;99.90;;;;;;12497507;28;20567;-36
2023/05/21 23:30:22;;;;;;;12.93;9.73;;;19.80;99.90;;;;;;12502765;28;20408;-36
2023/05/21 23:36:25;;;;;;;15.63;9.40;;;19.80;99.90;;;;;;12488543;28;20041;-36
2023/05/21 23:42:27;;;;;;;;;;;19.80;99.90;;;;;;12475860;28;20057;-37
2023/05/21 23:48:31;;;;;;;15.55;9.18;;;19.70;99.90;;;;;;12478171;28;19928;-37
2023/05/21 23:54:35;;;;;;;12.63;9.63;;;19.80;99.90;;;;;;12467158;28;20076;-36
